Brighton Beach, South Carolina
Current Conditions -  °F | °C
As of 2:50 PM on Thursday 30 Oct 2014 (Local Time) from KHXD Reporting Station
Broken Clouds Broken Clouds  
Wind Chill: 21°   Ceiling: 2800
Heat Index: 21°   Visibility: 10mi
Dew Point: 14°   Wind: 5mph
Humidity: 64%   Direction: 30°NNE
Pressure: 29.95"   Gusts: NA
Location:  32.2133°N, 80.9033°W
Report Text: KHXD 301850Z 03004KT 10SM BKN028 21/14 A2995
Loading
Personal Weather Stations






























Interactive Weather Map
Tropical Storm Tracking
New forecast layout! Learn more

10-Day Weather Forecast

Advertisements
Track Severe Weather on mobile